createdAt,value
2018-12-26T00:00:28.778Z,0.00
2018-12-26T00:01:28.767Z,0.00
2018-12-26T00:02:28.755Z,0.00
2018-12-26T00:03:28.782Z,0.00
2018-12-26T00:04:28.736Z,0.00
2018-12-26T00:05:28.820Z,0.00
2018-12-26T00:06:28.713Z,0.00
2018-12-26T00:07:28.704Z,0.00
2018-12-26T00:08:28.692Z,0.00
2018-12-26T00:09:28.715Z,0.00
2018-12-26T00:10:28.671Z,0.00
2018-12-26T00:11:28.659Z,0.00
2018-12-26T00:12:28.649Z,0.00
2018-12-26T00:13:28.638Z,0.00
2018-12-26T00:14:28.669Z,0.00
2018-12-26T00:15:28.619Z,0.00
2018-12-26T00:16:28.654Z,0.00
2018-12-26T00:17:28.621Z,0.00
2018-12-26T00:18:28.706Z,0.00
2018-12-26T00:19:28.595Z,0.00
2018-12-26T00:20:28.599Z,0.00
2018-12-26T00:21:28.554Z,0.00
2018-12-26T00:22:28.542Z,0.00
2018-12-26T00:23:28.531Z,0.00
2018-12-26T00:24:28.522Z,0.00
2018-12-26T00:25:28.507Z,0.00
2018-12-26T00:26:28.523Z,0.00
2018-12-26T00:27:28.487Z,0.00
2018-12-26T00:28:28.485Z,0.00
2018-12-26T00:29:28.463Z,0.00
2018-12-26T00:30:28.454Z,0.00
2018-12-26T00:31:28.538Z,0.00
2018-12-26T00:32:28.435Z,0.00
2018-12-26T00:33:28.420Z,0.00
2018-12-26T00:34:28.412Z,0.00
2018-12-26T00:35:28.397Z,0.00
2018-12-26T00:36:28.387Z,0.00
2018-12-26T00:37:28.411Z,0.00
2018-12-26T00:38:28.367Z,0.00
2018-12-26T00:39:28.354Z,0.00
2018-12-26T00:40:28.345Z,0.00
2018-12-26T00:41:28.334Z,0.00
2018-12-26T00:42:28.324Z,0.00
2018-12-26T00:43:28.348Z,0.00
2018-12-26T00:44:28.300Z,0.00
2018-12-26T00:45:28.291Z,0.00
2018-12-26T00:46:28.277Z,0.00
2018-12-26T00:47:28.271Z,0.00
2018-12-26T00:48:28.258Z,0.00
2018-12-26T00:49:28.271Z,0.00
2018-12-26T00:50:28.235Z,0.00
2018-12-26T00:51:28.225Z,0.00
2018-12-26T00:52:28.214Z,0.00
2018-12-26T00:53:28.205Z,0.00
2018-12-26T00:54:28.232Z,0.00
2018-12-26T00:55:28.179Z,0.00
2018-12-26T00:56:28.258Z,0.00
2018-12-26T00:57:28.159Z,0.00
2018-12-26T00:58:28.148Z,0.00
2018-12-26T00:59:28.136Z,0.00
2018-12-26T01:00:28.162Z,0.00
2018-12-26T01:01:28.119Z,0.00
2018-12-26T01:02:28.105Z,0.00
2018-12-26T01:03:28.094Z,0.00
2018-12-26T01:04:28.082Z,0.00
2018-12-26T01:05:28.124Z,0.00
2018-12-26T01:06:28.096Z,0.00
2018-12-26T01:07:28.048Z,0.00
2018-12-26T01:08:28.039Z,0.00
2018-12-26T01:09:28.027Z,0.00
2018-12-26T01:10:28.017Z,0.00
2018-12-26T01:11:28.043Z,0.00
2018-12-26T01:12:27.995Z,0.00
2018-12-26T01:13:27.984Z,0.00
2018-12-26T01:14:27.973Z,0.00
2018-12-26T01:15:27.962Z,0.00
2018-12-26T01:16:27.951Z,0.00
2018-12-26T01:17:27.975Z,0.00
2018-12-26T01:18:27.928Z,0.00
2018-12-26T01:19:27.920Z,0.00
2018-12-26T01:20:27.910Z,0.00
2018-12-26T01:21:27.900Z,0.00
2018-12-26T01:22:27.885Z,0.00
2018-12-26T01:23:27.913Z,0.00
2018-12-26T01:24:27.866Z,0.00
2018-12-26T01:25:27.856Z,0.00
2018-12-26T01:26:27.843Z,0.00
2018-12-26T01:27:27.838Z,0.00
2018-12-26T01:28:27.820Z,0.00
2018-12-26T01:29:27.846Z,0.00
2018-12-26T01:30:27.801Z,0.00
2018-12-26T01:31:27.792Z,0.00
2018-12-26T01:32:27.781Z,0.00
2018-12-26T01:33:27.766Z,0.00
2018-12-26T01:34:27.757Z,0.00
2018-12-26T01:35:27.786Z,0.00
2018-12-26T01:36:27.736Z,0.00
2018-12-26T01:37:27.724Z,0.00
2018-12-26T01:38:27.713Z,0.00
2018-12-26T01:39:27.703Z,0.00
2018-12-26T01:40:27.692Z,0.00
2018-12-26T01:41:27.707Z,0.00
2018-12-26T01:42:27.669Z,0.00
2018-12-26T01:43:27.658Z,0.00
2018-12-26T01:44:27.650Z,0.00
2018-12-26T01:45:27.637Z,0.00
2018-12-26T01:46:27.663Z,0.00
2018-12-26T01:47:27.616Z,0.00
2018-12-26T01:48:27.606Z,0.00
2018-12-26T01:49:27.593Z,0.00
2018-12-26T01:50:27.591Z,0.00
2018-12-26T01:51:27.573Z,0.00
2018-12-26T01:52:27.598Z,0.00
2018-12-26T01:53:27.551Z,0.00
2018-12-26T01:54:27.539Z,0.00
2018-12-26T01:55:27.527Z,0.00
2018-12-26T01:56:28.162Z,0.00
2018-12-26T01:57:27.507Z,0.00
2018-12-26T01:58:27.524Z,0.00
2018-12-26T01:59:27.491Z,0.00
2018-12-26T02:00:27.475Z,0.00
2018-12-26T02:01:27.470Z,0.00
2018-12-26T02:02:27.454Z,0.00
2018-12-26T02:03:27.478Z,0.00
2018-12-26T02:04:27.432Z,0.00
2018-12-26T02:05:27.421Z,0.00
2018-12-26T02:06:27.412Z,0.00
2018-12-26T02:07:27.401Z,0.00
2018-12-26T02:08:27.399Z,0.00
2018-12-26T02:09:27.415Z,0.00
2018-12-26T02:10:27.465Z,0.00
2018-12-26T02:11:27.359Z,0.00
2018-12-26T02:12:27.347Z,0.00
2018-12-26T02:13:27.337Z,0.00
2018-12-26T02:14:27.325Z,0.00
2018-12-26T02:15:27.351Z,0.00
2018-12-26T02:16:27.318Z,0.00
2018-12-26T02:17:27.294Z,0.00
2018-12-26T02:18:27.284Z,0.00
2018-12-26T02:19:27.273Z,0.00
2018-12-26T02:20:27.263Z,0.00
2018-12-26T02:21:27.276Z,0.00
2018-12-26T02:22:27.241Z,0.00
2018-12-26T02:23:27.229Z,0.00
2018-12-26T02:24:27.221Z,0.00
2018-12-26T02:25:27.207Z,0.00
2018-12-26T02:26:27.236Z,0.00
2018-12-26T02:27:27.188Z,0.00
2018-12-26T02:28:27.175Z,0.00
2018-12-26T02:29:27.163Z,0.00
2018-12-26T02:30:27.157Z,0.00
2018-12-26T02:31:27.148Z,0.00
2018-12-26T02:32:27.172Z,0.00
2018-12-26T02:33:27.125Z,0.00
2018-12-26T02:34:27.113Z,0.00
2018-12-26T02:35:27.103Z,0.00
2018-12-26T02:36:27.094Z,0.00
2018-12-26T02:37:27.093Z,0.00
2018-12-26T02:38:27.095Z,0.00
2018-12-26T02:39:27.057Z,0.00
2018-12-26T02:40:27.047Z,0.00
2018-12-26T02:41:27.040Z,0.00
2018-12-26T02:42:27.024Z,0.00
2018-12-26T02:43:27.063Z,0.00
2018-12-26T02:44:27.003Z,0.00
2018-12-26T02:45:26.997Z,0.00
2018-12-26T02:46:26.985Z,0.00
2018-12-26T02:47:26.970Z,0.00
2018-12-26T02:48:26.961Z,0.00
2018-12-26T02:49:26.986Z,0.00
2018-12-26T02:50:26.939Z,0.00
2018-12-26T02:51:26.936Z,0.00
2018-12-26T02:52:26.918Z,0.00
2018-12-26T02:53:26.906Z,0.00
2018-12-26T02:54:26.899Z,0.00
2018-12-26T02:55:26.910Z,0.00
2018-12-26T02:56:26.873Z,0.00
2018-12-26T02:57:26.916Z,0.00
2018-12-26T02:58:26.854Z,0.00
2018-12-26T02:59:26.843Z,0.00
2018-12-26T03:00:26.831Z,0.00
2018-12-26T03:01:26.822Z,0.00
2018-12-26T03:02:26.818Z,0.00
2018-12-26T03:03:26.825Z,0.00
2018-12-26T03:04:26.790Z,0.00
2018-12-26T03:05:26.779Z,0.00
2018-12-26T03:06:26.768Z,0.00
2018-12-26T03:07:26.757Z,0.00
2018-12-26T03:08:26.771Z,0.00
2018-12-26T03:09:26.738Z,0.00
2018-12-26T03:10:26.725Z,0.00
2018-12-26T03:11:26.715Z,0.00
2018-12-26T03:12:26.703Z,0.00
2018-12-26T03:13:26.726Z,0.00
2018-12-26T03:14:26.682Z,0.00
2018-12-26T03:15:26.672Z,0.00
2018-12-26T03:16:26.660Z,0.00
2018-12-26T03:17:26.654Z,0.00
2018-12-26T03:18:26.639Z,0.00
2018-12-26T03:19:26.658Z,0.00
2018-12-26T03:20:26.621Z,0.00
2018-12-26T03:21:26.606Z,0.00
2018-12-26T03:22:26.599Z,0.00
2018-12-26T03:23:26.587Z,0.00
2018-12-26T03:24:26.601Z,0.00
2018-12-26T03:25:26.565Z,0.00
2018-12-26T03:26:26.559Z,0.00
2018-12-26T03:27:26.543Z,0.00
2018-12-26T03:28:26.531Z,0.00
2018-12-26T03:29:26.558Z,0.00
2018-12-26T03:30:26.512Z,0.00
2018-12-26T03:31:26.502Z,0.00
2018-12-26T03:32:26.488Z,0.00
2018-12-26T03:33:26.480Z,0.00
2018-12-26T03:34:26.469Z,0.00
2018-12-26T03:35:26.481Z,0.00
2018-12-26T03:36:26.447Z,0.00
2018-12-26T03:37:26.438Z,0.00
2018-12-26T03:38:26.424Z,0.00
2018-12-26T03:39:26.415Z,0.00
2018-12-26T03:40:26.428Z,0.00
2018-12-26T03:41:26.392Z,0.00
2018-12-26T03:42:26.381Z,0.00
2018-12-26T03:43:26.370Z,0.00
2018-12-26T03:44:26.367Z,0.00
2018-12-26T03:45:26.375Z,0.00
2018-12-26T03:46:26.341Z,0.00
2018-12-26T03:47:26.330Z,0.00
2018-12-26T03:48:26.318Z,0.00
2018-12-26T03:49:26.315Z,0.00
2018-12-26T03:50:26.327Z,0.00
2018-12-26T03:51:26.285Z,0.00
2018-12-26T03:52:26.281Z,0.00
2018-12-26T03:53:26.265Z,0.00
2018-12-26T03:54:26.252Z,0.00
2018-12-26T03:55:26.278Z,0.00
2018-12-26T03:56:26.231Z,0.00
2018-12-26T03:57:26.223Z,0.00
2018-12-26T03:58:26.212Z,0.00
2018-12-26T03:59:26.201Z,0.00
2018-12-26T04:00:26.194Z,0.00
2018-12-26T04:01:26.202Z,0.00
2018-12-26T04:02:26.166Z,0.00
2018-12-26T04:03:26.157Z,0.00
2018-12-26T04:04:26.148Z,0.00
2018-12-26T04:05:26.137Z,0.00
2018-12-26T04:06:26.148Z,0.00
2018-12-26T04:07:26.116Z,0.00
2018-12-26T04:08:26.105Z,0.00
2018-12-26T04:09:26.093Z,0.00
2018-12-26T04:10:26.092Z,0.00
2018-12-26T04:11:26.109Z,0.00
2018-12-26T04:12:26.061Z,0.00
2018-12-26T04:13:26.050Z,0.00
2018-12-26T04:14:26.046Z,0.00
2018-12-26T04:15:26.029Z,0.00
2018-12-26T04:16:26.022Z,0.00
2018-12-26T04:17:26.034Z,0.00
2018-12-26T04:18:25.996Z,0.00
2018-12-26T04:19:25.993Z,0.00
2018-12-26T04:20:25.974Z,0.00
2018-12-26T04:21:25.965Z,0.00
2018-12-26T04:22:25.981Z,0.00
2018-12-26T04:23:25.943Z,0.00
2018-12-26T04:24:25.974Z,0.00
2018-12-26T04:25:25.923Z,0.00
2018-12-26T04:26:25.911Z,0.00
2018-12-26T04:27:25.935Z,0.00
2018-12-26T04:28:25.889Z,0.00
2018-12-26T04:29:25.882Z,0.00
2018-12-26T04:30:25.867Z,0.00
2018-12-26T04:31:25.856Z,0.00
2018-12-26T04:32:25.847Z,0.00
2018-12-26T04:33:25.859Z,0.00
2018-12-26T04:34:25.823Z,0.00
2018-12-26T04:35:25.824Z,0.00
2018-12-26T04:36:25.804Z,0.00
2018-12-26T04:37:25.795Z,0.00
2018-12-26T04:38:25.806Z,0.00
2018-12-26T04:39:25.768Z,0.00
2018-12-26T04:40:25.760Z,0.00
2018-12-26T04:41:25.752Z,0.00
2018-12-26T04:42:25.738Z,0.00
2018-12-26T04:43:25.764Z,0.00
2018-12-26T04:44:25.716Z,0.00
2018-12-26T04:45:25.705Z,0.00
2018-12-26T04:46:25.695Z,0.00
2018-12-26T04:47:25.685Z,0.00
2018-12-26T04:48:25.671Z,0.00
2018-12-26T04:49:25.691Z,0.00
2018-12-26T04:50:25.651Z,0.00
2018-12-26T04:51:25.643Z,0.00
2018-12-26T04:52:25.795Z,0.00
2018-12-26T04:53:25.625Z,0.00
2018-12-26T04:54:25.636Z,0.00
2018-12-26T04:55:25.600Z,0.00
2018-12-26T04:56:25.587Z,0.00
2018-12-26T04:57:25.577Z,0.00
2018-12-26T04:58:25.564Z,0.00
2018-12-26T04:59:25.604Z,0.00
2018-12-26T05:00:25.544Z,0.00
2018-12-26T05:01:25.532Z,0.00
2018-12-26T05:02:25.522Z,0.00
2018-12-26T05:03:25.508Z,0.00
2018-12-26T05:04:25.518Z,0.00
2018-12-26T05:05:25.521Z,0.00
2018-12-26T05:06:25.479Z,0.00
2018-12-26T05:07:25.475Z,0.00
2018-12-26T05:08:25.457Z,0.00
2018-12-26T05:09:25.446Z,0.00
2018-12-26T05:10:25.468Z,0.00
2018-12-26T05:11:25.425Z,0.00
2018-12-26T05:12:25.414Z,0.00
2018-12-26T05:13:25.409Z,0.00
2018-12-26T05:14:25.393Z,0.00
2018-12-26T05:15:25.407Z,0.00
2018-12-26T05:16:25.371Z,0.00
2018-12-26T05:17:25.360Z,0.00
2018-12-26T05:18:25.352Z,0.00
2018-12-26T05:19:25.343Z,0.00
2018-12-26T05:20:25.353Z,0.00
2018-12-26T05:21:25.316Z,0.00
2018-12-26T05:22:25.309Z,0.00
2018-12-26T05:23:25.295Z,0.00
2018-12-26T05:24:25.287Z,0.00
2018-12-26T05:25:25.312Z,0.00
2018-12-26T05:26:25.268Z,0.00
2018-12-26T05:27:33.962Z,0.00
2018-12-26T05:28:26.241Z,0.00
2018-12-26T05:29:25.237Z,0.00
2018-12-26T05:30:25.223Z,0.00
2018-12-26T05:31:25.234Z,0.00
2018-12-26T05:32:25.201Z,0.00
2018-12-26T05:33:25.189Z,0.00
2018-12-26T05:34:25.185Z,0.00
2018-12-26T05:35:25.169Z,0.00
2018-12-26T05:36:25.182Z,0.00
2018-12-26T05:37:25.145Z,0.00
2018-12-26T05:38:25.135Z,0.00
2018-12-26T05:39:25.125Z,0.00
2018-12-26T05:40:25.112Z,0.00
2018-12-26T05:41:25.139Z,0.00
2018-12-26T05:42:25.091Z,0.00
2018-12-26T05:43:25.082Z,0.00
2018-12-26T05:44:25.071Z,0.00
2018-12-26T05:45:25.062Z,0.00
2018-12-26T05:46:25.048Z,0.00
2018-12-26T05:47:25.060Z,0.00
2018-12-26T05:48:25.026Z,0.00
2018-12-26T05:49:25.020Z,0.00
2018-12-26T05:50:25.004Z,0.00
2018-12-26T05:51:24.993Z,0.00
2018-12-26T05:52:25.008Z,0.00
2018-12-26T05:53:24.971Z,0.00
2018-12-26T05:54:24.962Z,0.00
2018-12-26T05:55:24.950Z,0.00
2018-12-26T05:56:24.939Z,0.00
2018-12-26T05:57:24.962Z,0.00
2018-12-26T05:58:24.920Z,0.00
2018-12-26T05:59:24.907Z,0.00
2018-12-26T06:00:24.897Z,0.00
2018-12-26T06:01:24.885Z,0.00
2018-12-26T06:02:24.876Z,0.00
2018-12-26T06:03:24.889Z,0.00
2018-12-26T06:04:24.852Z,0.00
2018-12-26T06:05:24.843Z,0.00
2018-12-26T06:06:24.831Z,0.00
2018-12-26T06:07:24.820Z,0.00
2018-12-26T06:08:24.834Z,0.00
2018-12-26T06:09:24.799Z,0.00
2018-12-26T06:10:24.787Z,0.00
2018-12-26T06:11:24.775Z,0.00
2018-12-26T06:12:24.769Z,0.00
2018-12-26T06:13:24.795Z,0.00
2018-12-26T06:14:24.744Z,0.00
2018-12-26T06:15:24.733Z,0.00
2018-12-26T06:16:24.722Z,0.00
2018-12-26T06:17:24.711Z,0.00
2018-12-26T06:18:24.701Z,0.00
2018-12-26T06:19:24.717Z,0.00
2018-12-26T06:20:24.678Z,0.00
2018-12-26T06:21:24.667Z,0.00
2018-12-26T06:22:24.660Z,0.00
2018-12-26T06:23:24.647Z,0.00
2018-12-26T06:24:24.659Z,0.00
2018-12-26T06:25:24.626Z,0.00
2018-12-26T06:26:24.614Z,0.00
2018-12-26T06:27:24.605Z,0.00
2018-12-26T06:28:24.591Z,0.00
2018-12-26T06:29:24.616Z,0.00
2018-12-26T06:30:24.571Z,0.00
2018-12-26T06:31:24.560Z,0.00
2018-12-26T06:32:24.549Z,0.00
2018-12-26T06:33:24.540Z,0.00
2018-12-26T06:34:24.528Z,0.00
2018-12-26T06:35:24.545Z,0.00
2018-12-26T06:36:24.507Z,0.00
2018-12-26T06:37:24.498Z,0.00
2018-12-26T06:38:24.485Z,0.00
2018-12-26T06:39:24.474Z,0.00
2018-12-26T06:40:24.493Z,0.00
2018-12-26T06:41:24.453Z,0.00
2018-12-26T06:42:24.440Z,0.00
2018-12-26T06:43:24.430Z,0.00
2018-12-26T06:44:24.422Z,0.00
2018-12-26T06:45:24.435Z,0.00
2018-12-26T06:46:24.403Z,0.00
2018-12-26T06:47:24.387Z,0.00
2018-12-26T06:48:24.377Z,0.00
2018-12-26T06:49:24.366Z,0.00
2018-12-26T06:50:24.381Z,0.00
2018-12-26T06:51:24.345Z,0.00
2018-12-26T06:52:24.335Z,0.00
2018-12-26T06:53:24.324Z,0.00
2018-12-26T06:54:24.313Z,0.00
2018-12-26T06:55:24.335Z,0.00
2018-12-26T06:56:24.293Z,4.00
2018-12-26T06:57:24.281Z,4.00
2018-12-26T06:58:24.270Z,0.00
2018-12-26T06:59:24.260Z,0.00
2018-12-26T07:00:24.247Z,0.00
2018-12-26T07:01:24.263Z,4.00
2018-12-26T07:02:24.230Z,4.00
2018-12-26T07:03:26.079Z,4.00
2018-12-26T07:04:24.206Z,4.00
2018-12-26T07:05:24.195Z,8.00
2018-12-26T07:06:24.209Z,4.00
2018-12-26T07:07:24.175Z,4.00
2018-12-26T07:08:24.163Z,4.00
2018-12-26T07:09:24.153Z,8.00
2018-12-26T07:10:24.142Z,4.00
2018-12-26T07:11:24.170Z,8.00
2018-12-26T07:12:24.122Z,8.00
2018-12-26T07:13:24.110Z,8.00
2018-12-26T07:14:24.100Z,8.00
2018-12-26T07:15:24.089Z,8.00
2018-12-26T07:16:24.081Z,12.00
2018-12-26T07:17:24.091Z,12.00
2018-12-26T07:18:24.056Z,12.00
2018-12-26T07:19:24.046Z,16.00
2018-12-26T07:20:24.035Z,12.00
2018-12-26T07:21:24.024Z,12.00
2018-12-26T07:22:24.039Z,12.00
2018-12-26T07:23:24.002Z,12.00
2018-12-26T07:24:23.992Z,16.00
2018-12-26T07:25:23.982Z,12.00
2018-12-26T07:26:23.969Z,12.00
2018-12-26T07:27:23.992Z,16.00
2018-12-26T07:28:23.948Z,16.00
2018-12-26T07:29:23.954Z,20.00
2018-12-26T07:30:23.926Z,20.00
2018-12-26T07:31:23.919Z,20.00
2018-12-26T07:32:23.905Z,24.00
2018-12-26T07:33:23.919Z,24.00
2018-12-26T07:34:23.882Z,20.00
2018-12-26T07:35:23.883Z,28.00
2018-12-26T07:36:23.865Z,32.00
2018-12-26T07:37:23.852Z,28.00
2018-12-26T07:38:23.867Z,28.00
2018-12-26T07:39:23.829Z,40.00
2018-12-26T07:40:23.819Z,32.00
2018-12-26T07:41:23.809Z,36.00
2018-12-26T07:42:23.799Z,32.00
2018-12-26T07:43:23.832Z,32.00
2018-12-26T07:44:23.776Z,36.00
2018-12-26T07:45:23.765Z,44.00
2018-12-26T07:46:23.755Z,44.00
2018-12-26T07:47:23.743Z,40.00
2018-12-26T07:48:23.731Z,52.00
2018-12-26T07:49:23.752Z,56.00
2018-12-26T07:50:23.711Z,48.00
2018-12-26T07:51:23.701Z,60.00
2018-12-26T07:52:23.694Z,60.00
2018-12-26T07:53:23.677Z,60.00
2018-12-26T07:54:23.695Z,72.00
2018-12-26T07:55:23.656Z,60.00
2018-12-26T07:56:23.646Z,68.00
2018-12-26T07:57:23.635Z,68.00
2018-12-26T07:58:23.623Z,56.00
2018-12-26T07:59:23.650Z,64.00
2018-12-26T08:00:23.603Z,56.00
2018-12-26T08:01:23.592Z,64.00
2018-12-26T08:02:23.579Z,68.00
2018-12-26T08:03:23.570Z,76.00
2018-12-26T08:04:23.560Z,84.00
2018-12-26T08:05:23.573Z,72.00
2018-12-26T08:06:23.537Z,84.00
2018-12-26T08:07:23.527Z,88.00
2018-12-26T08:08:23.517Z,104.00
2018-12-26T08:09:23.504Z,92.00
2018-12-26T08:10:23.521Z,92.00
2018-12-26T08:11:23.484Z,96.00
2018-12-26T08:12:23.473Z,96.00
2018-12-26T08:13:23.469Z,96.00
2018-12-26T08:14:23.453Z,104.00
2018-12-26T08:15:23.477Z,112.00
2018-12-26T08:16:23.432Z,108.00
2018-12-26T08:17:23.420Z,108.00
2018-12-26T08:18:23.409Z,108.00
2018-12-26T08:19:23.399Z,108.00
2018-12-26T08:20:23.387Z,124.00
2018-12-26T08:21:23.401Z,104.00
2018-12-26T08:22:23.363Z,100.00
2018-12-26T08:23:23.351Z,112.00
2018-12-26T08:24:23.344Z,100.00
2018-12-26T08:25:23.331Z,128.00
2018-12-26T08:26:23.343Z,140.00
2018-12-26T08:27:23.309Z,152.00
2018-12-26T08:28:26.763Z,152.00
2018-12-26T08:29:23.290Z,172.00
2018-12-26T08:30:23.365Z,168.00
2018-12-26T08:31:23.300Z,160.00
2018-12-26T08:32:23.256Z,168.00
2018-12-26T08:33:23.245Z,136.00
2018-12-26T08:34:23.234Z,144.00
2018-12-26T08:35:23.221Z,160.00
2018-12-26T08:36:23.213Z,132.00
2018-12-26T08:37:23.231Z,124.00
2018-12-26T08:38:23.191Z,164.00
2018-12-26T08:39:23.184Z,176.00
2018-12-26T08:40:23.172Z,196.00
2018-12-26T08:41:23.159Z,168.00
2018-12-26T08:42:23.172Z,148.00
2018-12-26T08:43:23.140Z,156.00
2018-12-26T08:44:23.127Z,192.00
2018-12-26T08:45:23.114Z,168.00
2018-12-26T08:46:23.104Z,168.00
2018-12-26T08:47:23.128Z,180.00
2018-12-26T08:48:23.081Z,212.00
2018-12-26T08:49:23.071Z,192.00
2018-12-26T08:50:23.059Z,176.00
2018-12-26T08:51:23.051Z,188.00
2018-12-26T08:52:23.037Z,192.00
2018-12-26T08:53:23.052Z,168.00
2018-12-26T08:54:23.015Z,172.00
2018-12-26T08:55:23.004Z,184.00
2018-12-26T08:56:22.997Z,172.00
2018-12-26T08:57:22.982Z,176.00
2018-12-26T08:58:22.999Z,192.00
2018-12-26T08:59:22.963Z,192.00
2018-12-26T09:00:22.951Z,184.00
2018-12-26T09:01:22.941Z,168.00
2018-12-26T09:02:22.928Z,180.00
2018-12-26T09:03:22.952Z,184.00
2018-12-26T09:04:22.909Z,212.00
2018-12-26T09:05:22.897Z,192.00
2018-12-26T09:06:22.885Z,216.00
2018-12-26T09:07:22.875Z,232.00
2018-12-26T09:08:22.865Z,220.00
2018-12-26T09:09:22.883Z,196.00
2018-12-26T09:10:22.841Z,232.00
2018-12-26T09:11:22.832Z,208.00
2018-12-26T09:12:22.831Z,252.00
2018-12-26T09:13:22.809Z,268.00
2018-12-26T09:14:22.825Z,248.00
2018-12-26T09:15:22.786Z,232.00
2018-12-26T09:16:22.776Z,236.00
2018-12-26T09:17:22.768Z,236.00
2018-12-26T09:18:22.755Z,220.00
2018-12-26T09:19:22.784Z,268.00
2018-12-26T09:20:22.735Z,248.00
2018-12-26T09:21:22.725Z,272.00
2018-12-26T09:22:22.715Z,260.00
2018-12-26T09:23:22.704Z,240.00
2018-12-26T09:24:22.690Z,256.00
2018-12-26T09:25:22.705Z,272.00
2018-12-26T09:26:22.667Z,296.00
2018-12-26T09:27:22.655Z,312.00
2018-12-26T09:28:22.644Z,352.00
2018-12-26T09:29:22.634Z,344.00
2018-12-26T09:30:22.648Z,352.00
2018-12-26T09:31:22.612Z,264.00
2018-12-26T09:32:22.601Z,308.00
2018-12-26T09:33:22.590Z,340.00
2018-12-26T09:34:22.581Z,356.00
2018-12-26T09:35:22.605Z,280.00
2018-12-26T09:36:22.560Z,312.00
2018-12-26T09:37:22.548Z,388.00
2018-12-26T09:38:22.537Z,352.00
2018-12-26T09:39:22.526Z,352.00
2018-12-26T09:40:22.516Z,352.00
2018-12-26T09:41:22.530Z,336.00
2018-12-26T09:42:22.494Z,376.00
2018-12-26T09:43:22.482Z,372.00
2018-12-26T09:44:22.472Z,380.00
2018-12-26T09:45:22.460Z,300.00
2018-12-26T09:46:22.477Z,288.00
2018-12-26T09:47:22.437Z,392.00
2018-12-26T09:48:22.427Z,492.00
2018-12-26T09:49:22.417Z,432.00
2018-12-26T09:50:22.406Z,448.00
2018-12-26T09:51:22.431Z,500.00
2018-12-26T09:52:22.386Z,412.00
2018-12-26T09:53:22.372Z,412.00
2018-12-26T09:54:22.364Z,376.00
2018-12-26T09:55:22.350Z,412.00
2018-12-26T09:56:22.344Z,332.00
2018-12-26T09:57:22.354Z,312.00
2018-12-26T09:58:22.316Z,396.00
2018-12-26T09:59:22.307Z,428.00
2018-12-26T10:00:22.298Z,500.00
2018-12-26T10:01:22.284Z,468.00
2018-12-26T10:02:22.300Z,392.00
2018-12-26T10:03:22.262Z,380.00
2018-12-26T10:04:22.252Z,364.00
2018-12-26T10:05:22.241Z,384.00
2018-12-26T10:06:22.232Z,448.00
2018-12-26T10:07:22.256Z,532.00
2018-12-26T10:08:22.210Z,460.00
2018-12-26T10:09:22.198Z,432.00
2018-12-26T10:10:22.185Z,312.00
2018-12-26T10:11:22.177Z,352.00
2018-12-26T10:12:22.164Z,360.00
2018-12-26T10:13:22.181Z,428.00
2018-12-26T10:14:22.144Z,440.00
2018-12-26T10:15:22.130Z,460.00
2018-12-26T10:16:22.124Z,436.00
2018-12-26T10:17:22.108Z,400.00
2018-12-26T10:18:22.125Z,392.00
2018-12-26T10:19:22.088Z,372.00
2018-12-26T10:20:22.079Z,432.00
2018-12-26T10:21:22.065Z,404.00
2018-12-26T10:22:22.057Z,464.00
2018-12-26T10:23:22.083Z,404.00
2018-12-26T10:24:22.034Z,312.00
2018-12-26T10:25:22.024Z,368.00
2018-12-26T10:26:22.011Z,356.00
2018-12-26T10:27:22.002Z,368.00
2018-12-26T10:28:21.990Z,372.00
2018-12-26T10:29:22.010Z,296.00
2018-12-26T10:30:21.969Z,288.00
2018-12-26T10:31:21.960Z,332.00
2018-12-26T10:32:21.947Z,388.00
2018-12-26T10:33:21.936Z,372.00
2018-12-26T10:34:21.950Z,348.00
2018-12-26T10:35:21.917Z,360.00
2018-12-26T10:36:21.905Z,348.00
2018-12-26T10:37:21.893Z,316.00
2018-12-26T10:38:21.884Z,320.00
2018-12-26T10:39:21.904Z,308.00
2018-12-26T10:40:21.863Z,364.00
2018-12-26T10:41:21.855Z,412.00
2018-12-26T10:42:21.837Z,452.00
2018-12-26T10:43:21.826Z,428.00
2018-12-26T10:44:21.817Z,376.00
2018-12-26T10:45:21.830Z,380.00
2018-12-26T10:46:21.803Z,356.00
2018-12-26T10:47:21.785Z,336.00
2018-12-26T10:48:21.774Z,376.00
2018-12-26T10:49:21.761Z,428.00
2018-12-26T10:50:21.776Z,428.00
2018-12-26T10:51:21.742Z,380.00
2018-12-26T10:52:21.730Z,332.00
2018-12-26T10:53:21.722Z,396.00
2018-12-26T10:54:21.707Z,360.00
2018-12-26T10:55:21.733Z,288.00
2018-12-26T10:56:21.685Z,272.00
2018-12-26T10:57:21.677Z,308.00
2018-12-26T10:58:21.664Z,348.00
2018-12-26T10:59:21.667Z,320.00
2018-12-26T11:00:21.641Z,352.00
2018-12-26T11:01:21.657Z,376.00
2018-12-26T11:02:21.624Z,364.00
2018-12-26T11:03:21.615Z,316.00
2018-12-26T11:04:21.646Z,320.00
2018-12-26T11:05:29.397Z,344.00
2018-12-26T11:06:22.611Z,344.00
2018-12-26T11:07:21.570Z,388.00
2018-12-26T11:08:21.556Z,372.00
2018-12-26T11:09:21.545Z,356.00
2018-12-26T11:10:21.536Z,328.00
2018-12-26T11:11:21.524Z,324.00
2018-12-26T11:12:21.547Z,324.00
2018-12-26T11:13:21.501Z,364.00
2018-12-26T11:14:21.495Z,368.00
2018-12-26T11:15:21.479Z,392.00
2018-12-26T11:16:21.469Z,268.00
2018-12-26T11:17:21.461Z,232.00
2018-12-26T11:18:21.475Z,192.00
2018-12-26T11:19:21.441Z,204.00
2018-12-26T11:20:21.426Z,240.00
2018-12-26T11:21:21.416Z,284.00
2018-12-26T11:22:21.405Z,344.00
2018-12-26T11:23:21.424Z,336.00
2018-12-26T11:24:21.383Z,328.00
2018-12-26T11:25:21.453Z,320.00
2018-12-26T11:26:21.362Z,280.00
2018-12-26T11:27:21.350Z,236.00
2018-12-26T11:28:21.374Z,244.00
2018-12-26T11:29:21.330Z,224.00
2018-12-26T11:30:21.319Z,200.00
2018-12-26T11:31:21.309Z,216.00
2018-12-26T11:32:21.298Z,244.00
2018-12-26T11:33:21.287Z,296.00
2018-12-26T11:34:21.313Z,300.00
2018-12-26T11:35:21.267Z,296.00
2018-12-26T11:36:21.292Z,276.00
2018-12-26T11:37:21.242Z,244.00
2018-12-26T11:38:21.233Z,232.00
2018-12-26T11:39:21.222Z,248.00
2018-12-26T11:40:21.235Z,256.00
2018-12-26T11:41:21.201Z,256.00
2018-12-26T11:42:21.194Z,252.00
2018-12-26T11:43:21.182Z,264.00
2018-12-26T11:44:21.268Z,280.00
2018-12-26T11:45:21.192Z,304.00
2018-12-26T11:46:21.145Z,268.00
2018-12-26T11:47:21.136Z,248.00
2018-12-26T11:48:21.124Z,244.00
2018-12-26T11:49:21.112Z,264.00
2018-12-26T11:50:21.102Z,240.00
2018-12-26T11:51:21.116Z,236.00
2018-12-26T11:52:21.081Z,264.00
2018-12-26T11:53:21.070Z,264.00
2018-12-26T11:54:21.060Z,252.00
2018-12-26T11:55:21.049Z,256.00
2018-12-26T11:56:21.073Z,228.00
2018-12-26T11:57:21.027Z,204.00
2018-12-26T11:58:21.016Z,192.00
2018-12-26T11:59:27.146Z,176.00
2018-12-26T12:00:21.994Z,188.00
2018-12-26T12:01:20.984Z,200.00
2018-12-26T12:02:21.008Z,212.00
2018-12-26T12:03:20.961Z,236.00
2018-12-26T12:04:20.951Z,244.00
2018-12-26T12:05:20.938Z,248.00
2018-12-26T12:06:20.930Z,252.00
2018-12-26T12:07:20.919Z,244.00
2018-12-26T12:08:20.935Z,204.00
2018-12-26T12:09:20.897Z,196.00
2018-12-26T12:10:20.891Z,192.00
2018-12-26T12:11:20.873Z,176.00
2018-12-26T12:12:20.866Z,164.00
2018-12-26T12:13:20.878Z,168.00
2018-12-26T12:14:20.849Z,176.00
2018-12-26T12:15:20.830Z,208.00
2018-12-26T12:16:20.821Z,196.00
2018-12-26T12:17:20.810Z,200.00
2018-12-26T12:18:20.839Z,204.00
2018-12-26T12:19:20.788Z,224.00
2018-12-26T12:20:20.777Z,220.00
2018-12-26T12:21:20.767Z,196.00
2018-12-26T12:22:20.838Z,208.00
2018-12-26T12:23:20.744Z,196.00
2018-12-26T12:24:20.773Z,196.00
2018-12-26T12:25:20.726Z,204.00
2018-12-26T12:26:20.714Z,184.00
2018-12-26T12:27:20.704Z,180.00
2018-12-26T12:28:20.692Z,192.00
2018-12-26T12:29:20.681Z,200.00
2018-12-26T12:30:20.694Z,192.00
2018-12-26T12:31:20.662Z,188.00
2018-12-26T12:32:20.648Z,184.00
2018-12-26T12:33:20.640Z,192.00
2018-12-26T12:34:20.629Z,204.00
2018-12-26T12:35:20.642Z,204.00
2018-12-26T12:36:20.606Z,212.00
2018-12-26T12:37:20.595Z,204.00
2018-12-26T12:38:20.587Z,204.00
2018-12-26T12:39:20.577Z,196.00
2018-12-26T12:40:20.606Z,192.00
2018-12-26T12:41:20.554Z,204.00
2018-12-26T12:42:20.543Z,196.00
2018-12-26T12:43:20.532Z,188.00
2018-12-26T12:44:21.602Z,188.00
2018-12-26T12:45:20.511Z,172.00
2018-12-26T12:46:20.535Z,184.00
2018-12-26T12:47:20.490Z,184.00
2018-12-26T12:48:20.485Z,188.00
2018-12-26T12:49:20.468Z,184.00
2018-12-26T12:50:20.459Z,184.00
2018-12-26T12:51:20.448Z,148.00
2018-12-26T12:52:20.472Z,148.00
2018-12-26T12:53:20.426Z,156.00
2018-12-26T12:54:20.415Z,176.00
2018-12-26T12:55:20.405Z,188.00
2018-12-26T12:56:20.395Z,184.00
2018-12-26T12:57:20.383Z,196.00